Bobcaygeon, Canada
Current Conditions -  °F | °C
As of 3:00 AM on Saturday 29 Nov 2014 (Local Time) from CYPQ Reporting Station
Overcast Overcast  
Wind Chill: 23°   Ceiling: 3500
Heat Index: 23°   Visibility: 9mi
Dew Point: 19°   Wind: 3mph
Humidity: 86%   Direction: 140°SE
Pressure: 30.16"   Gusts: NA
Location:  44.53°N, 78.55°W
Report Text: CYPQ 290800Z AUTO 14003KT 9SM OVC035 M05/M07 A3016 RMK SLP226
Loading
Personal Weather Stations






























Interactive Weather Map New forecast layout! Learn more

10-Day Weather Forecast

Advertisements
Track Severe Weather on mobile